Terminal Aerodrome Forecast
Issued by NWS Los Angeles, CA

Home | Current Version | Previous Version | Text Only | Print | Product List | Glossary On
Versions: 1 2 3 4 5 6 7 8 9 10 11 12 13 14 15 16 17 18 19 20 21 22 23 24 25 26 27 28 29 30
499
FTUS46 KLOX 281805 AAD
TAFSMX
TAF AMD
KSMX 281805Z 2818/2918 VRB03KT P6SM FEW015
     FM282000 30012KT P6SM SKC
     FM290500 VRB03KT P6SM SKC
     FM291000 VRB03KT 4SM BR BKN008=

USA.gov is the U.S. government's official web portal to all federal, state and local government web resources and services.